Time;durP1;ratioP1;P1;durP2;ratioP2;P2;SDS_P1;SDS_P2;PMS_P1;PMS_P2;Temp;Humidity;BMP_temperature;BMP_pressure;BME280_temperature;BME280_humidity;BME280_pressure;Samples;Min_cycle;Max_cycle;Signal;HPM_P1;HPM_P2
2021/05/07 00:01:19;;;;;;;5.45;4.25;;;8.20;99.90;;;;;;4954714;29;20476;-68
2021/05/07 00:03:45;;;;;;;9.57;6.00;;;8.20;99.90;;;;;;4956137;29;20081;-68
2021/05/07 00:06:11;;;;;;;4.78;3.80;;;8.20;99.90;;;;;;4955488;29;20035;-68
2021/05/07 00:08:39;;;;;;;5.53;4.82;;;8.30;99.90;;;;;;4956708;29;20023;-67
2021/05/07 00:11:09;;;;;;;6.22;3.65;;;8.30;99.90;;;;;;4956382;29;20023;-71
2021/05/07 00:13:35;;;;;;;5.88;4.63;;;8.30;99.90;;;;;;4955327;28;20366;-67
2021/05/07 00:16:01;;;;;;;5.72;4.10;;;8.30;99.90;;;;;;4955493;29;20525;-72
2021/05/07 00:18:27;;;;;;;8.07;4.85;;;8.20;99.90;;;;;;4955981;29;20039;-67
2021/05/07 00:20:53;;;;;;;6.90;4.68;;;8.10;99.90;;;;;;4955742;29;20031;-70
2021/05/07 00:23:19;;;;;;;5.28;4.30;;;8.20;99.90;;;;;;4955854;29;20497;-68
2021/05/07 00:25:46;;;;;;;5.45;4.38;;;8.20;99.90;;;;;;4956409;28;20032;-71
2021/05/07 00:28:13;;;;;;;8.88;4.32;;;8.10;99.90;;;;;;4956071;29;20027;-67
2021/05/07 00:30:39;;;;;;;5.90;4.60;;;8.20;99.90;;;;;;4956837;28;20424;-69
2021/05/07 00:33:07;;;;;;;6.07;4.63;;;8.20;99.90;;;;;;4956472;29;20486;-71
2021/05/07 00:35:33;;;;;;;5.63;4.55;;;8.20;99.90;;;;;;4957180;29;20141;-68
2021/05/07 00:37:59;;;;;;;4.93;4.43;;;8.10;99.90;;;;;;4955920;29;20027;-67
2021/05/07 00:40:24;;;;;;;5.63;4.78;;;8.20;99.90;;;;;;4954939;28;20024;-68
2021/05/07 00:42:50;;;;;;;7.50;4.32;;;8.20;99.90;;;;;;4956470;29;20447;-69
2021/05/07 00:45:17;;;;;;;7.57;4.85;;;8.10;99.90;;;;;;4957630;29;20071;-68
2021/05/07 00:47:58;;;;;;;8.25;4.75;;;8.10;99.90;;;;;;4955371;28;20051;-70
2021/05/07 00:50:31;;;;;;;7.93;5.15;;;8.10;99.90;;;;;;4955240;28;20430;-68
2021/05/07 00:52:59;;;;;;;8.23;4.55;;;8.20;99.90;;;;;;4953097;29;20086;-68
2021/05/07 00:55:25;;;;;;;6.80;4.93;;;8.20;99.90;;;;;;4955043;28;20023;-68
2021/05/07 00:57:51;;;;;;;6.30;4.55;;;8.20;99.90;;;;;;4953338;29;20032;-68
2021/05/07 01:00:18;;;;;;;4.97;4.43;;;8.20;99.90;;;;;;4955268;28;20055;-67
2021/05/07 01:02:43;;;;;;;5.88;4.20;;;8.30;99.90;;;;;;4954220;29;20038;-69
2021/05/07 01:05:10;;;;;;;5.13;4.57;;;8.30;99.90;;;;;;4954166;29;20054;-68
2021/05/07 01:07:36;;;;;;;5.65;4.43;;;8.20;99.90;;;;;;4954339;29;20027;-67
2021/05/07 01:10:06;;;;;;;5.85;3.85;;;8.30;99.90;;;;;;4954471;28;20123;-68
2021/05/07 01:12:32;;;;;;;6.22;4.47;;;8.20;99.90;;;;;;4955229;29;20424;-68
2021/05/07 01:15:11;;;;;;;6.13;4.20;;;8.20;99.90;;;;;;4954591;29;20050;-67
2021/05/07 01:17:42;;;;;;;5.95;4.55;;;8.20;99.90;;;;;;4954994;28;20019;-68
2021/05/07 01:20:19;;;;;;;5.35;4.25;;;8.10;99.90;;;;;;4952310;29;20031;-67
2021/05/07 01:22:50;;;;;;;7.38;4.47;;;8.20;99.90;;;;;;4954085;29;20381;-67
2021/05/07 01:25:18;;;;;;;6.53;4.25;;;8.20;99.90;;;;;;4954841;29;20485;-67
2021/05/07 01:27:47;;;;;;;5.38;4.15;;;8.10;99.90;;;;;;4954156;28;20087;-68
2021/05/07 01:30:17;;;;;;;4.80;4.07;;;8.10;99.90;;;;;;4953011;28;20496;-67
2021/05/07 01:32:44;;;;;;;7.25;4.18;;;8.10;99.90;;;;;;4953646;29;20031;-68
2021/05/07 01:35:18;;;;;;;5.95;4.28;;;8.10;99.90;;;;;;4954013;29;20124;-68
2021/05/07 01:37:45;;;;;;;5.18;3.40;;;8.10;99.90;;;;;;4957166;28;20118;-69
2021/05/07 01:40:23;;;;;;;4.53;4.03;;;8.10;99.90;;;;;;4961023;29;20058;-67
2021/05/07 01:42:50;;;;;;;6.40;4.28;;;8.10;99.90;;;;;;4959631;29;20451;-70
2021/05/07 01:45:18;;;;;;;5.72;4.25;;;8.10;99.90;;;;;;4959298;29;20039;-67
2021/05/07 01:47:44;;;;;;;7.93;4.22;;;8.10;99.90;;;;;;4974515;28;20082;-67
2021/05/07 01:50:13;;;;;;;4.80;3.92;;;8.10;99.90;;;;;;4960718;28;20031;-67
2021/05/07 01:52:39;;;;;;;6.03;4.20;;;8.10;99.90;;;;;;4981194;28;20484;-69
2021/05/07 01:55:08;;;;;;;5.57;4.40;;;8.10;99.90;;;;;;4962839;28;20046;-67
2021/05/07 01:57:35;;;;;;;5.35;3.78;;;8.10;99.90;;;;;;4963382;28;20027;-67
2021/05/07 02:00:04;;;;;;;6.07;3.90;;;8.10;99.90;;;;;;4962662;28;20453;-67
2021/05/07 02:02:30;;;;;;;5.18;4.50;;;8.00;99.90;;;;;;4981032;28;20042;-67
2021/05/07 02:04:55;;;;;;;6.72;4.32;;;8.00;99.90;;;;;;4981338;28;20033;-69
2021/05/07 02:07:21;;;;;;;4.57;3.80;;;8.10;99.90;;;;;;4981389;28;20054;-68
2021/05/07 02:09:46;;;;;;;4.88;4.25;;;8.10;99.90;;;;;;4980643;28;20033;-70
2021/05/07 02:12:12;;;;;;;3.75;3.35;;;8.00;99.90;;;;;;4962578;28;20050;-69
2021/05/07 02:14:38;;;;;;;6.22;4.50;;;8.10;99.90;;;;;;4963493;28;20050;-69
2021/05/07 02:17:04;;;;;;;6.22;4.65;;;8.00;99.90;;;;;;4981627;28;20035;-69
2021/05/07 02:19:30;;;;;;;5.32;4.32;;;8.00;99.90;;;;;;4964949;28;20058;-68
2021/05/07 02:21:56;;;;;;;5.20;4.05;;;8.10;99.90;;;;;;4980532;28;20077;-68
2021/05/07 02:24:22;;;;;;;5.93;4.07;;;8.10;99.90;;;;;;4963281;28;20029;-68
2021/05/07 02:26:48;;;;;;;7.43;4.22;;;8.10;99.90;;;;;;4982547;28;20031;-67
2021/05/07 02:29:15;;;;;;;6.35;4.45;;;8.10;99.90;;;;;;4965750;28;20038;-68
2021/05/07 02:31:40;;;;;;;4.88;4.35;;;8.10;99.90;;;;;;4981601;28;20031;-71
2021/05/07 02:34:06;;;;;;;6.45;5.05;;;8.00;99.90;;;;;;4963985;28;20109;-70
2021/05/07 02:36:32;;;;;;;4.82;4.25;;;8.00;99.90;;;;;;4981762;28;20068;-68
2021/05/07 02:38:57;;;;;;;5.72;4.05;;;8.00;99.90;;;;;;4979075;28;20031;-67
2021/05/07 02:41:23;;;;;;;5.43;4.22;;;8.00;99.90;;;;;;4977657;28;20056;-67
2021/05/07 02:43:49;;;;;;;5.28;3.85;;;8.10;99.90;;;;;;4959958;28;20031;-68
2021/05/07 02:46:15;;;;;;;7.03;4.32;;;8.10;99.90;;;;;;4977945;28;20057;-67
2021/05/07 02:48:40;;;;;;;8.00;4.80;;;8.10;99.90;;;;;;4963601;28;20174;-71
2021/05/07 02:51:06;;;;;;;7.78;4.03;;;8.10;99.90;;;;;;4959146;28;20126;-68
2021/05/07 02:53:32;;;;;;;4.63;4.07;;;8.00;99.90;;;;;;4978132;28;20046;-67
2021/05/07 02:55:57;;;;;;;5.30;4.80;;;8.00;99.90;;;;;;4958790;28;20103;-66
2021/05/07 02:58:23;;;;;;;5.65;5.05;;;7.90;99.90;;;;;;4957409;28;20035;-68
2021/05/07 03:00:49;;;;;;;5.35;4.50;;;7.90;99.90;;;;;;4956834;28;20023;-67
2021/05/07 03:03:14;;;;;;;5.45;4.15;;;7.90;99.90;;;;;;4973970;28;20041;-67
2021/05/07 03:05:40;;;;;;;5.82;5.22;;;7.90;99.90;;;;;;4973769;28;20377;-67
2021/05/07 03:08:06;;;;;;;5.75;4.53;;;7.90;99.90;;;;;;4956000;28;20030;-69
2021/05/07 03:10:31;;;;;;;6.40;5.03;;;7.90;99.90;;;;;;4956029;28;20105;-68
2021/05/07 03:12:57;;;;;;;5.72;4.90;;;7.90;99.90;;;;;;4955885;28;20042;-69
2021/05/07 03:15:23;;;;;;;7.88;5.07;;;8.00;99.90;;;;;;4973744;28;20034;-68
2021/05/07 03:17:52;;;;;;;5.45;4.95;;;8.00;99.90;;;;;;4973747;28;20027;-67
2021/05/07 03:20:18;;;;;;;7.20;5.85;;;8.00;99.90;;;;;;4973348;28;20048;-67
2021/05/07 03:22:44;;;;;;;9.18;7.15;;;8.00;99.90;;;;;;4973332;28;20511;-68
2021/05/07 03:25:10;;;;;;;12.05;7.22;;;8.00;99.90;;;;;;4955441;28;20337;-67
2021/05/07 03:27:36;;;;;;;9.30;7.68;;;8.00;99.90;;;;;;4956078;28;20023;-67
2021/05/07 03:30:03;;;;;;;9.70;8.05;;;7.90;99.90;;;;;;4955390;28;20031;-67
2021/05/07 03:32:28;;;;;;;8.68;7.80;;;7.90;99.90;;;;;;4955842;28;20089;-67
2021/05/07 03:34:54;;;;;;;11.98;8.50;;;7.90;99.90;;;;;;4955855;28;20069;-67
2021/05/07 03:37:19;;;;;;;10.57;8.65;;;7.90;99.90;;;;;;4973208;28;20099;-67
2021/05/07 03:39:45;;;;;;;9.10;8.02;;;8.00;99.90;;;;;;4955561;28;20035;-67
2021/05/07 03:42:11;;;;;;;11.15;9.55;;;7.90;99.90;;;;;;4972602;28;20496;-68
2021/05/07 03:44:36;;;;;;;9.63;8.63;;;7.90;99.90;;;;;;4955631;28;20546;-67
2021/05/07 03:47:02;;;;;;;11.93;9.75;;;7.90;99.90;;;;;;4954771;28;20051;-67
2021/05/07 03:49:30;;;;;;;11.65;9.68;;;8.00;99.90;;;;;;4955627;28;20058;-68
2021/05/07 03:51:57;;;;;;;13.75;10.98;;;7.90;99.90;;;;;;4955025;28;20507;-72
2021/05/07 03:54:23;;;;;;;11.77;9.48;;;7.90;99.90;;;;;;4972906;28;20392;-67
2021/05/07 03:56:48;;;;;;;10.95;9.73;;;8.00;99.90;;;;;;4972891;28;20030;-67
2021/05/07 03:59:15;;;;;;;15.55;11.45;;;7.70;99.90;;;;;;4972828;28;20031;-67
2021/05/07 04:01:40;;;;;;;12.52;10.40;;;7.80;99.90;;;;;;4974093;28;20030;-67
2021/05/07 04:04:08;;;;;;;13.18;10.95;;;7.80;99.90;;;;;;4956460;28;20031;-66
2021/05/07 04:06:33;;;;;;;13.30;11.80;;;7.60;99.90;;;;;;4956348;28;20026;-68
2021/05/07 04:09:14;;;;;;;16.15;12.27;;;7.60;99.90;;;;;;4955270;28;20552;-67
2021/05/07 04:11:54;;;;;;;15.40;12.27;;;7.50;99.90;;;;;;4955394;28;20128;-67
2021/05/07 04:14:20;;;;;;;14.77;13.05;;;7.50;99.90;;;;;;4954488;28;20031;-67
2021/05/07 04:16:45;;;;;;;14.63;12.27;;;7.50;99.90;;;;;;4955092;28;20093;-67
2021/05/07 04:19:11;;;;;;;15.35;11.70;;;7.40;99.90;;;;;;4954281;28;20031;-67
2021/05/07 04:21:37;;;;;;;13.35;11.85;;;7.40;99.90;;;;;;4972689;28;20038;-67
2021/05/07 04:24:03;;;;;;;15.18;12.57;;;7.50;99.90;;;;;;4955144;28;20027;-66
2021/05/07 04:26:28;;;;;;;15.57;12.15;;;7.50;99.90;;;;;;4955541;28;20034;-67
2021/05/07 04:28:54;;;;;;;14.95;12.40;;;7.50;99.90;;;;;;4955956;28;20027;-69
2021/05/07 04:31:19;;;;;;;17.23;12.70;;;7.40;99.90;;;;;;4973936;28;20027;-67
2021/05/07 04:33:45;;;;;;;19.38;14.90;;;7.40;99.90;;;;;;4974369;28;20388;-67
2021/05/07 04:36:11;;;;;;;17.63;14.25;;;7.30;99.90;;;;;;4954524;28;20089;-67
2021/05/07 04:38:37;;;;;;;24.58;14.70;;;7.20;99.90;;;;;;4954730;28;20433;-67
2021/05/07 04:41:03;;;;;;;16.15;14.00;;;7.30;99.90;;;;;;4954046;28;20121;-69
2021/05/07 04:43:29;;;;;;;19.15;14.15;;;7.30;99.90;;;;;;4954451;28;20023;-68
2021/05/07 04:45:54;;;;;;;21.67;14.23;;;7.20;99.90;;;;;;4972068;28;20030;-68
2021/05/07 04:48:20;;;;;;;18.52;14.77;;;7.20;99.90;;;;;;4971738;28;20027;-68
2021/05/07 04:50:46;;;;;;;18.77;14.50;;;7.30;99.90;;;;;;4954560;28;20057;-68
2021/05/07 04:53:12;;;;;;;17.30;14.00;;;7.40;99.90;;;;;;4953961;28;20031;-67
2021/05/07 04:55:37;;;;;;;18.27;14.05;;;7.50;99.90;;;;;;4972233;28;20038;-67
2021/05/07 04:58:04;;;;;;;19.25;15.57;;;7.40;99.90;;;;;;4954111;28;20457;-67
2021/05/07 05:00:30;;;;;;;18.80;14.25;;;7.50;99.90;;;;;;4954340;28;20082;-67
2021/05/07 05:02:55;;;;;;;18.88;15.18;;;7.50;99.90;;;;;;4954223;28;20030;-67
2021/05/07 05:05:21;;;;;;;18.80;14.30;;;7.50;99.90;;;;;;4971400;28;20090;-68
2021/05/07 05:07:52;;;;;;;18.73;14.73;;;7.70;99.90;;;;;;4954446;28;20027;-66
2021/05/07 05:10:19;;;;;;;15.70;13.18;;;7.70;99.90;;;;;;4953316;28;20042;-68
2021/05/07 05:12:44;;;;;;;17.98;14.15;;;7.80;99.90;;;;;;4953648;28;20049;-66
2021/05/07 05:15:10;;;;;;;17.27;13.80;;;7.80;99.90;;;;;;4955134;28;20034;-68
2021/05/07 05:17:36;;;;;;;14.35;12.80;;;7.90;99.90;;;;;;4972587;28;20115;-68
2021/05/07 05:20:05;;;;;;;15.35;12.27;;;7.90;99.90;;;;;;4954710;28;20331;-68
2021/05/07 05:22:30;;;;;;;17.58;13.25;;;7.90;99.90;;;;;;4971599;28;20126;-67
2021/05/07 05:24:57;;;;;;;16.50;13.70;;;8.00;99.90;;;;;;4958458;28;20054;-68
2021/05/07 05:27:23;;;;;;;18.73;14.73;;;8.00;99.90;;;;;;4974262;28;20042;-68
2021/05/07 05:29:48;;;;;;;20.92;14.40;;;8.00;99.90;;;;;;4956721;28;20027;-72
2021/05/07 05:32:14;;;;;;;17.45;14.63;;;8.10;99.90;;;;;;4972600;28;20066;-62
2021/05/07 05:34:40;;;;;;;21.25;15.40;;;8.10;99.90;;;;;;4955197;28;20527;-67
2021/05/07 05:37:05;;;;;;;20.10;14.93;;;9.30;99.90;;;;;;4953828;28;20035;-69
2021/05/07 05:39:31;;;;;;;19.95;14.48;;;8.50;99.90;;;;;;4973227;28;20109;-71
2021/05/07 05:42:00;;;;;;;19.77;14.70;;;8.30;99.90;;;;;;4958374;28;20182;-69
2021/05/07 05:44:25;;;;;;;19.80;16.05;;;8.30;99.90;;;;;;4954560;28;20031;-68
2021/05/07 05:46:51;;;;;;;20.75;14.80;;;8.20;99.90;;;;;;4954650;28;20204;-69
2021/05/07 05:49:17;;;;;;;20.50;14.30;;;8.30;99.90;;;;;;4953513;28;20033;-68
2021/05/07 05:51:43;;;;;;;18.90;14.40;;;8.30;99.90;;;;;;4971234;28;20480;-70
2021/05/07 05:54:09;;;;;;;18.67;14.80;;;8.30;99.90;;;;;;4971617;28;20111;-68
2021/05/07 05:56:34;;;;;;;21.88;14.88;;;8.30;99.90;;;;;;4972499;28;20101;-68
2021/05/07 05:59:00;;;;;;;19.40;14.65;;;8.20;99.90;;;;;;4973159;28;20029;-68
2021/05/07 06:01:26;;;;;;;27.65;16.00;;;8.20;99.90;;;;;;4954523;28;20026;-68
2021/05/07 06:03:51;;;;;;;17.75;14.23;;;8.20;99.90;;;;;;4955359;28;20109;-68
2021/05/07 06:06:17;;;;;;;24.92;14.55;;;8.20;99.90;;;;;;4972110;28;20134;-72
2021/05/07 06:08:43;;;;;;;20.20;14.20;;;8.20;99.90;;;;;;4956166;28;20053;-69
2021/05/07 06:11:08;;;;;;;23.05;14.98;;;8.10;99.90;;;;;;4971891;28;20085;-70
2021/05/07 06:13:34;;;;;;;18.80;14.32;;;8.10;99.90;;;;;;4971247;28;20035;-73
2021/05/07 06:16:00;;;;;;;18.30;14.45;;;8.30;99.90;;;;;;4973668;28;20031;-68
2021/05/07 06:18:26;;;;;;;19.00;14.25;;;8.30;99.90;;;;;;4972635;28;20031;-70
2021/05/07 06:20:52;;;;;;;16.58;13.27;;;8.30;99.90;;;;;;4972372;28;20030;-68
2021/05/07 06:23:17;;;;;;;18.55;13.05;;;8.40;99.90;;;;;;4971770;28;20031;-69
2021/05/07 06:25:43;;;;;;;19.08;13.27;;;8.50;99.90;;;;;;4977056;28;20117;-69
2021/05/07 06:28:09;;;;;;;17.02;12.02;;;8.40;99.90;;;;;;4976000;28;20034;-70
2021/05/07 06:30:35;;;;;;;14.90;11.32;;;8.50;99.90;;;;;;4976383;28;20027;-69
2021/05/07 06:33:00;;;;;;;16.17;11.27;;;8.50;99.90;;;;;;4977246;28;20114;-68
2021/05/07 06:35:26;;;;;;;22.38;11.90;;;8.50;99.90;;;;;;4975231;28;20039;-69
2021/05/07 06:37:53;;;;;;;17.65;12.02;;;8.60;99.90;;;;;;4964759;28;20027;-69
2021/05/07 06:40:19;;;;;;;17.67;11.15;;;8.60;99.90;;;;;;4959504;28;20037;-72
2021/05/07 06:42:47;;;;;;;15.88;11.38;;;8.90;99.90;;;;;;4961269;28;20113;-71
2021/05/07 06:45:13;;;;;;;13.77;11.52;;;9.00;99.90;;;;;;4976073;28;20039;-71
2021/05/07 06:47:38;;;;;;;16.27;11.35;;;9.00;99.90;;;;;;4975463;28;20089;-69
2021/05/07 06:50:06;;;;;;;15.18;11.27;;;9.10;99.90;;;;;;4973756;28;20058;-71
2021/05/07 06:52:32;;;;;;;14.20;10.30;;;9.30;99.90;;;;;;4957699;28;20037;-74
2021/05/07 06:54:58;;;;;;;15.15;10.70;;;9.40;99.90;;;;;;4975724;28;20035;-70
2021/05/07 06:57:24;;;;;;;13.45;10.85;;;9.30;99.90;;;;;;4956538;28;20038;-69
2021/05/07 06:59:50;;;;;;;12.18;10.35;;;9.20;99.90;;;;;;4975147;28;20031;-70
2021/05/07 07:02:17;;;;;;;12.70;10.80;;;9.30;99.90;;;;;;4973904;28;20031;-67
2021/05/07 07:04:42;;;;;;;12.63;10.27;;;9.30;99.90;;;;;;4955590;28;20023;-68
2021/05/07 07:07:08;;;;;;;14.15;9.32;;;9.40;99.90;;;;;;4974040;28;20038;-71
2021/05/07 07:09:35;;;;;;;13.98;8.80;;;9.40;99.90;;;;;;4975003;28;20057;-67
2021/05/07 07:12:01;;;;;;;12.75;8.48;;;9.30;99.90;;;;;;4956876;28;20385;-72
2021/05/07 07:14:27;;;;;;;10.23;7.38;;;9.60;99.40;;;;;;4975883;28;20038;-71
2021/05/07 07:16:52;;;;;;;9.75;7.32;;;9.60;99.00;;;;;;4959427;28;20030;-68
2021/05/07 07:19:18;;;;;;;12.63;7.60;;;9.70;98.60;;;;;;4956363;28;20027;-69
2021/05/07 07:21:44;;;;;;;11.60;8.20;;;10.00;98.90;;;;;;4972423;28;20118;-68
2021/05/07 07:24:09;;;;;;;13.43;8.52;;;9.90;98.00;;;;;;4971545;28;20031;-69
2021/05/07 07:26:35;;;;;;;10.80;6.63;;;10.00;98.20;;;;;;4956912;28;20103;-71
2021/05/07 07:29:01;;;;;;;9.20;7.05;;;10.00;97.80;;;;;;4956724;28;20069;-76
2021/05/07 07:31:26;;;;;;;11.15;7.40;;;10.00;97.60;;;;;;4971672;28;20416;-68
2021/05/07 07:33:52;;;;;;;8.30;7.18;;;10.00;97.60;;;;;;4955736;28;20073;-70
2021/05/07 07:36:18;;;;;;;9.95;6.90;;;10.10;97.60;;;;;;4959388;28;20039;-69
2021/05/07 07:38:44;;;;;;;10.32;7.68;;;10.50;97.50;;;;;;4978215;28;20023;-70
2021/05/07 07:41:10;;;;;;;9.15;7.60;;;10.80;96.60;;;;;;4978745;28;20372;-67
2021/05/07 07:43:35;;;;;;;9.32;7.22;;;11.30;96.20;;;;;;4957946;28;20059;-68
2021/05/07 07:46:01;;;;;;;9.32;7.15;;;11.30;95.70;;;;;;4954315;28;20061;-68
2021/05/07 07:48:27;;;;;;;8.85;6.80;;;11.10;94.20;;;;;;4953588;28;20038;-69
2021/05/07 07:50:54;;;;;;;14.82;7.07;;;11.10;94.20;;;;;;4954114;28;20031;-67
2021/05/07 07:53:20;;;;;;;11.35;7.43;;;11.40;92.90;;;;;;4954134;28;20066;-69
2021/05/07 07:55:45;;;;;;;9.60;7.53;;;11.70;92.90;;;;;;4962189;28;20062;-70
2021/05/07 07:58:11;;;;;;;12.10;8.40;;;11.80;91.20;;;;;;4945024;28;20592;-69
2021/05/07 08:00:37;;;;;;;7.70;6.72;;;11.90;91.80;;;;;;4944533;28;20484;-70
2021/05/07 08:03:03;;;;;;;7.20;6.13;;;12.20;91.30;;;;;;4945594;28;20465;-78
2021/05/07 08:05:28;;;;;;;11.63;8.48;;;12.70;89.90;;;;;;4945255;28;20022;-67
2021/05/07 08:07:58;;;;;;;8.38;5.72;;;12.80;88.40;;;;;;4946200;28;20026;-69
2021/05/07 08:10:24;;;;;;;9.48;6.15;;;12.80;84.50;;;;;;4960146;28;20019;-69
2021/05/07 08:12:51;;;;;;;8.85;6.50;;;13.10;84.10;;;;;;4962524;28;20031;-68
2021/05/07 08:15:19;;;;;;;8.77;6.30;;;12.80;84.80;;;;;;4944290;28;20042;-68
2021/05/07 08:17:46;;;;;;;9.07;6.50;;;12.80;85.60;;;;;;4945048;28;20031;-71
2021/05/07 08:20:13;;;;;;;7.07;5.60;;;13.10;84.40;;;;;;4941489;29;20078;-69
2021/05/07 08:22:38;;;;;;;9.77;5.95;;;12.90;82.80;;;;;;4943769;28;20034;-68
2021/05/07 08:25:05;;;;;;;11.10;5.43;;;13.20;83.00;;;;;;4943741;28;20027;-76
2021/05/07 08:27:30;;;;;;;12.70;6.82;;;13.50;79.80;;;;;;4961169;28;20056;-74
2021/05/07 08:29:56;;;;;;;7.75;5.32;;;13.50;77.50;;;;;;4946709;28;20378;-71
2021/05/07 08:32:22;;;;;;;7.85;5.22;;;13.30;76.30;;;;;;4948831;28;20038;-68
2021/05/07 08:34:48;;;;;;;7.47;5.72;;;13.30;76.90;;;;;;4971589;28;20401;-66
2021/05/07 08:37:15;;;;;;;7.15;5.30;;;13.60;76.20;;;;;;4963690;28;20547;-65
2021/05/07 08:39:40;;;;;;;8.68;6.03;;;13.70;76.90;;;;;;4955490;28;20027;-66
2021/05/07 08:42:08;;;;;;;8.90;5.47;;;13.60;77.10;;;;;;4970612;28;20145;-76
2021/05/07 08:44:34;;;;;;;7.35;6.22;;;13.60;76.80;;;;;;4958471;28;20054;-67
2021/05/07 08:47:01;;;;;;;9.82;6.03;;;13.10;77.50;;;;;;4970260;28;20070;-67
2021/05/07 08:49:28;;;;;;;6.55;5.85;;;13.30;78.30;;;;;;4970199;28;20087;-68
2021/05/07 08:51:54;;;;;;;8.23;5.90;;;13.80;75.40;;;;;;4953749;28;20473;-67
2021/05/07 08:54:20;;;;;;;6.80;6.00;;;13.40;75.50;;;;;;4952529;28;20027;-67
2021/05/07 08:56:46;;;;;;;6.97;5.07;;;13.80;76.40;;;;;;4953860;28;20450;-66
2021/05/07 08:59:12;;;;;;;8.27;6.45;;;14.50;75.20;;;;;;4968171;28;20425;-65
2021/05/07 09:01:43;;;;;;;7.45;5.25;;;14.70;73.30;;;;;;4952956;28;20454;-66
2021/05/07 09:04:10;;;;;;;6.90;5.38;;;14.80;79.30;;;;;;4951466;28;20058;-69
2021/05/07 09:06:49;;;;;;;8.15;5.35;;;14.50;73.80;;;;;;4952840;28;20093;-68
2021/05/07 09:23:56;;;;;;;7.13;5.18;;;14.90;67.80;;;;;;5217389;23;20125;-65
2021/05/07 09:26:22;;;;;;;4.70;4.20;;;15.30;65.60;;;;;;4951750;29;20404;-67
2021/05/07 09:28:52;;;;;;;8.10;5.18;;;14.40;65.70;;;;;;4950741;29;20039;-66
2021/05/07 09:31:19;;;;;;;9.13;5.57;;;14.20;65.90;;;;;;4951158;29;20023;-68
2021/05/07 09:33:47;;;;;;;5.30;4.68;;;14.30;67.80;;;;;;4932801;29;20062;-66
2021/05/07 09:36:22;;;;;;;6.88;5.20;;;14.40;66.50;;;;;;4933485;29;20027;-68
2021/05/07 09:38:48;;;;;;;16.02;5.95;;;13.70;66.80;;;;;;4949786;28;20063;-67
2021/05/07 09:41:14;;;;;;;8.35;4.93;;;13.60;67.00;;;;;;4934407;29;20055;-67
2021/05/07 09:43:39;;;;;;;8.75;5.05;;;13.50;67.50;;;;;;4934136;28;20034;-66
2021/05/07 09:46:05;;;;;;;5.78;5.07;;;13.40;67.20;;;;;;4937859;28;20015;-67
2021/05/07 09:48:31;;;;;;;9.63;5.35;;;13.00;66.80;;;;;;4951503;28;20340;-81
2021/05/07 09:50:58;;;;;;;6.95;5.07;;;12.90;68.60;;;;;;4952608;28;20222;-67
2021/05/07 09:53:29;;;;;;;9.75;5.20;;;12.60;69.70;;;;;;4969985;28;20054;-67
2021/05/07 09:56:03;;;;;;;8.27;6.13;;;12.20;74.00;;;;;;4969811;28;20027;-65
2021/05/07 09:58:29;;;;;;;13.30;7.93;;;11.70;83.30;;;;;;4951537;28;20074;-82
2021/05/07 10:00:57;;;;;;;16.88;10.50;;;11.30;87.50;;;;;;4973312;28;20073;-66
2021/05/07 10:03:23;;;;;;;6.95;5.40;;;11.10;92.10;;;;;;4973908;28;20062;-70
2021/05/07 10:05:50;;;;;;;7.50;3.65;;;11.10;92.90;;;;;;4976357;28;20058;-68
2021/05/07 10:08:17;;;;;;;3.25;2.55;;;10.50;96.40;;;;;;4979475;28;20026;-66
2021/05/07 10:10:43;;;;;;;7.57;2.95;;;;;;;;;;4978801;28;20065;-68
2021/05/07 10:13:25;;;;;;;3.15;2.20;;;8.40;99.90;;;;;;4961940;28;20034;-68
2021/05/07 10:16:04;;;;;;;6.78;3.55;;;7.80;99.90;;;;;;4962592;28;20455;-69
2021/05/07 10:18:58;;;;;;;6.47;2.72;;;7.40;99.90;;;;;;4973165;28;20069;-75
2021/05/07 10:21:46;;;;;;;3.95;2.50;;;7.30;99.90;;;;;;4979592;28;20026;-65
2021/05/07 10:24:17;;;;;;;4.95;2.00;;;7.30;99.90;;;;;;4961526;28;20054;-66
2021/05/07 10:27:22;;;;;;;4.47;2.97;;;7.30;99.90;;;;;;4962812;28;20028;-66
2021/05/07 10:36:51;;;;;;;12.35;5.63;;;7.70;99.90;;;;;;4939246;28;20458;-67
2021/05/07 10:39:21;;;;;;;5.38;3.38;;;8.00;99.90;;;;;;4920531;29;20047;-69
2021/05/07 10:41:48;;;;;;;8.45;4.63;;;8.30;99.90;;;;;;4917807;29;20489;-66
2021/05/07 10:44:15;;;;;;;5.25;3.92;;;8.50;99.90;;;;;;4917118;29;20028;-69
2021/05/07 10:46:46;;;;;;;2.80;2.20;;;8.90;99.90;;;;;;4924927;29;20050;-67
2021/05/07 10:49:13;;;;;;;9.18;3.97;;;9.30;99.90;;;;;;4935944;29;20452;-68
2021/05/07 10:51:39;;;;;;;4.05;2.42;;;10.30;99.90;;;;;;4934937;29;20038;-69
2021/05/07 10:54:09;;;;;;;3.20;2.58;;;11.30;99.90;;;;;;4935653;29;20042;-68
2021/05/07 10:56:40;;;;;;;3.35;1.95;;;12.10;99.90;;;;;;4960973;28;20054;-66
2021/05/07 10:59:17;;;;;;;3.65;2.10;;;13.20;99.90;;;;;;4966405;28;20043;-68
2021/05/07 11:01:56;;;;;;;20.20;11.00;;;13.50;99.90;;;;;;4965818;28;20043;-69
2021/05/07 11:04:22;;;;;;;12.48;7.55;;;13.70;98.20;;;;;;4950539;28;20047;-67
2021/05/07 11:07:02;;;;;;;4.78;2.42;;;14.00;99.20;;;;;;4972091;28;20736;-68
2021/05/07 11:09:29;;;;;;;3.15;1.88;;;14.60;96.50;;;;;;4972939;28;20023;-69
2021/05/07 11:12:02;;;;;;;3.67;1.88;;;14.60;97.20;;;;;;4953634;28;20134;-68
2021/05/07 11:14:29;;;;;;;3.60;1.98;;;14.50;97.20;;;;;;4972768;28;20332;-86
2021/05/07 11:16:55;;;;;;;3.95;2.38;;;14.60;98.50;;;;;;4972549;28;20049;-75
2021/05/07 11:19:30;;;;;;;2.00;1.80;;;14.90;95.40;;;;;;4954756;28;20115;-69
2021/05/07 11:21:58;;;;;;;4.38;3.30;;;14.60;95.50;;;;;;4971763;28;20034;-65
2021/05/07 11:24:26;;;;;;;6.03;3.65;;;14.10;95.50;;;;;;4953099;28;20357;-66
2021/05/07 11:26:52;;;;;;;8.23;4.22;;;13.90;95.60;;;;;;4953797;28;20077;-66
2021/05/07 11:29:32;;;;;;;5.45;3.90;;;13.60;95.90;;;;;;4972186;28;20027;-68
2021/05/07 11:32:18;;;;;;;3.97;2.20;;;13.80;95.40;;;;;;4971770;28;20074;-69
2021/05/07 11:34:49;;;;;;;5.63;2.25;;;13.80;94.20;;;;;;4970984;28;20037;-68
2021/05/07 11:37:15;;;;;;;3.60;2.72;;;13.90;94.40;;;;;;4954846;28;20408;-67
2021/05/07 11:39:41;;;;;;;6.35;2.05;;;13.60;94.00;;;;;;4954382;28;20058;-67
2021/05/07 11:42:08;;;;;;;6.75;2.50;;;14.00;94.60;;;;;;4971180;28;20066;-66
2021/05/07 11:44:33;;;;;;;4.07;2.13;;;14.50;93.60;;;;;;4971612;28;20081;-70
2021/05/07 11:47:08;;;;;;;2.83;2.08;;;13.90;92.40;;;;;;4971741;28;20409;-67
2021/05/07 11:49:37;;;;;;;7.03;3.60;;;13.70;92.40;;;;;;4971329;28;20034;-67
2021/05/07 11:52:04;;;;;;;4.72;2.00;;;13.00;93.50;;;;;;4954255;28;20041;-68
2021/05/07 11:54:44;;;;;;;4.15;3.65;;;12.70;93.00;;;;;;4971167;28;20031;-70
2021/05/07 11:57:11;;;;;;;2.22;2.00;;;12.30;93.80;;;;;;4954383;28;20041;-69
2021/05/07 11:59:47;;;;;;;7.50;4.00;;;12.00;94.50;;;;;;4953952;28;20101;-66
2021/05/07 12:02:22;;;;;;;4.57;3.40;;;11.50;95.40;;;;;;4954252;28;20138;-66
2021/05/07 12:04:48;;;;;;;14.85;7.47;;;11.50;96.40;;;;;;4972707;28;20058;-67
2021/05/07 12:07:28;;;;;;;8.25;5.57;;;11.40;96.00;;;;;;4972712;28;20423;-66
2021/05/07 12:09:55;;;;;;;6.15;3.92;;;11.30;95.80;;;;;;4955115;28;20031;-67
2021/05/07 12:12:21;;;;;;;4.75;3.45;;;11.30;96.40;;;;;;4956254;28;20035;-66
2021/05/07 12:14:51;;;;;;;7.90;4.20;;;11.30;96.20;;;;;;4981127;28;20082;-66
2021/05/07 12:17:23;;;;;;;11.50;6.07;;;11.10;96.40;;;;;;4959019;28;20109;-68
2021/05/07 12:20:01;;;;;;;6.55;4.63;;;11.00;96.00;;;;;;4955186;28;20031;-67
2021/05/07 12:22:27;;;;;;;8.65;5.60;;;11.60;96.00;;;;;;4954407;28;20073;-68
2021/05/07 12:24:52;;;;;;;6.80;5.85;;;11.70;95.70;;;;;;4971864;28;20023;-67
2021/05/07 12:27:31;;;;;;;14.38;4.70;;;11.70;94.90;;;;;;4954832;28;20443;-67
2021/05/07 12:29:56;;;;;;;4.22;3.70;;;11.80;94.60;;;;;;4955578;28;20102;-66
2021/05/07 12:32:23;;;;;;;7.38;5.38;;;11.80;93.70;;;;;;4954643;28;20081;-65
2021/05/07 12:34:59;;;;;;;5.65;4.45;;;11.60;93.70;;;;;;4972475;28;20043;-66
2021/05/07 12:37:39;;;;;;;4.65;3.50;;;11.30;94.30;;;;;;4953555;28;20035;-66
2021/05/07 12:40:06;;;;;;;5.28;4.03;;;11.30;94.50;;;;;;4954481;28;20038;-69
2021/05/07 12:42:32;;;;;;;9.73;5.40;;;11.10;95.30;;;;;;4972379;28;20137;-82
2021/05/07 12:44:59;;;;;;;10.40;5.18;;;11.10;95.70;;;;;;4954331;28;20023;-67
2021/05/07 12:47:25;;;;;;;5.82;4.30;;;11.30;94.70;;;;;;4954385;28;20046;-65
2021/05/07 12:49:51;;;;;;;4.38;3.78;;;11.20;94.20;;;;;;4969952;28;20027;-66
2021/05/07 12:52:17;;;;;;;6.03;5.05;;;11.20;94.20;;;;;;4954543;28;20118;-65
2021/05/07 12:54:42;;;;;;;6.30;4.95;;;11.40;93.80;;;;;;4951400;28;20121;-68
2021/05/07 12:57:08;;;;;;;7.03;4.40;;;11.60;93.50;;;;;;4970310;28;20030;-65
2021/05/07 12:59:34;;;;;;;4.75;3.42;;;11.70;92.90;;;;;;4968731;28;20026;-67
2021/05/07 13:02:00;;;;;;;4.10;3.70;;;11.50;93.60;;;;;;4960428;28;20506;-65
2021/05/07 13:04:26;;;;;;;7.75;5.28;;;11.30;94.10;;;;;;4978452;28;20043;-64
2021/05/07 13:06:52;;;;;;;7.55;4.18;;;10.90;94.80;;;;;;4944917;28;20023;-66
2021/05/07 13:09:19;;;;;;;3.20;2.88;;;10.80;95.60;;;;;;4971920;28;20117;-64
2021/05/07 13:11:45;;;;;;;7.60;5.10;;;10.90;95.10;;;;;;4968971;28;20621;-65